createdAt,value
2022-11-23T00:00:55.498Z,4.40
2022-11-23T00:02:58.356Z,4.23
2022-11-23T00:05:00.914Z,5.00
2022-11-23T00:07:03.398Z,4.67
2022-11-23T00:09:05.948Z,3.77
2022-11-23T00:11:11.562Z,4.00
2022-11-23T00:13:14.232Z,4.70
2022-11-23T00:15:16.538Z,3.77
2022-11-23T00:17:18.571Z,3.23
2022-11-23T00:19:21.089Z,2.83
2022-11-23T00:21:24.297Z,2.53
2022-11-23T00:23:26.635Z,3.43
2022-11-23T00:25:34.718Z,3.30
2022-11-23T00:27:36.911Z,4.03
2022-11-23T00:29:39.054Z,4.23
2022-11-23T00:31:41.424Z,3.80
2022-11-23T00:33:45.744Z,3.90
2022-11-23T00:35:47.703Z,4.50
2022-11-23T00:37:49.887Z,3.87
2022-11-23T00:39:51.936Z,4.10
2022-11-23T00:41:53.960Z,3.53
2022-11-23T00:43:55.963Z,3.53
2022-11-23T00:46:15.497Z,3.80
2022-11-23T00:48:17.664Z,3.63
2022-11-23T00:50:20.203Z,3.73
2022-11-23T00:52:24.803Z,4.40
2022-11-23T00:54:27.084Z,4.13
2022-11-23T00:56:31.462Z,4.20
2022-11-23T00:58:34.896Z,4.50
2022-11-23T01:00:37.517Z,4.37
2022-11-23T01:02:39.695Z,4.53
2022-11-23T01:04:42.185Z,4.10
2022-11-23T01:06:44.223Z,4.97
2022-11-23T01:08:54.476Z,5.30
2022-11-23T01:11:02.320Z,6.10
2022-11-23T01:13:04.608Z,6.53
2022-11-23T01:15:07.324Z,5.40
2022-11-23T01:17:09.535Z,5.07
2022-11-23T01:19:15.322Z,5.57
2022-11-23T01:21:17.701Z,6.70
2022-11-23T01:23:19.974Z,6.50
2022-11-23T01:25:22.185Z,6.23
2022-11-23T01:27:24.176Z,5.80
2022-11-23T01:29:26.209Z,5.47
2022-11-23T01:31:28.338Z,4.63
2022-11-23T01:33:30.505Z,5.03
2022-11-23T01:35:32.689Z,4.57
2022-11-23T01:37:34.782Z,4.17
2022-11-23T01:39:36.836Z,3.83
2022-11-23T01:41:41.733Z,4.23
2022-11-23T01:43:43.884Z,4.10
2022-11-23T01:46:00.299Z,4.40
2022-11-23T01:48:06.139Z,4.30
2022-11-23T01:50:08.800Z,4.03
2022-11-23T01:52:16.209Z,3.13
2022-11-23T01:54:31.749Z,3.53
2022-11-23T01:56:38.637Z,3.07
2022-11-23T01:58:44.223Z,4.00
2022-11-23T02:00:47.214Z,4.07
2022-11-23T02:02:57.857Z,4.80
2022-11-23T02:05:02.047Z,4.33
2022-11-23T02:07:05.348Z,3.87
2022-11-23T02:09:08.217Z,3.00
2022-11-23T02:11:13.753Z,3.10
2022-11-23T02:13:16.640Z,2.93
2022-11-23T02:15:20.558Z,2.60
2022-11-23T02:17:25.541Z,2.87
2022-11-23T02:19:29.724Z,3.40
2022-11-23T02:21:32.447Z,3.03
2022-11-23T02:23:59.006Z,2.60
2022-11-23T02:26:15.052Z,3.13
2022-11-23T02:28:25.096Z,3.03
2022-11-23T02:30:28.901Z,2.80
2022-11-23T02:32:31.809Z,2.40
2022-11-23T02:34:33.743Z,2.60
2022-11-23T02:36:42.031Z,2.40
2022-11-23T02:38:44.148Z,2.60
2022-11-23T02:40:51.224Z,2.80
2022-11-23T02:43:00.661Z,2.10
2022-11-23T02:45:25.392Z,2.00
2022-11-23T02:47:28.038Z,2.80
2022-11-23T02:49:31.063Z,3.10
2022-11-23T02:51:33.727Z,3.23
2022-11-23T02:53:37.774Z,5.00
2022-11-23T02:55:39.865Z,5.03
2022-11-23T02:57:42.332Z,4.47
2022-11-23T02:59:46.063Z,4.13
2022-11-23T03:01:48.807Z,4.60
2022-11-23T03:03:51.020Z,4.20
2022-11-23T03:05:56.444Z,3.87
2022-11-23T03:07:59.710Z,3.43
2022-11-23T03:10:05.321Z,2.77
2022-11-23T03:12:07.786Z,3.43
2022-11-23T03:14:12.494Z,3.10
2022-11-23T03:16:22.961Z,3.03
2022-11-23T03:18:26.271Z,3.40
2022-11-23T03:20:29.257Z,3.27
2022-11-23T03:22:31.893Z,3.40
2022-11-23T03:24:34.695Z,2.97
2022-11-23T03:26:38.819Z,3.23
2022-11-23T03:28:45.649Z,4.53
2022-11-23T03:30:49.803Z,5.33
2022-11-23T03:32:52.800Z,6.80
2022-11-23T03:34:55.721Z,8.23
2022-11-23T03:36:57.929Z,7.53
2022-11-23T03:39:00.221Z,5.53
2022-11-23T03:41:20.575Z,5.60
2022-11-23T03:43:27.850Z,4.40
2022-11-23T03:45:30.019Z,2.60
2022-11-23T03:47:32.797Z,2.70
2022-11-23T03:49:34.943Z,2.43
2022-11-23T03:51:38.507Z,2.20
2022-11-23T03:53:40.724Z,2.10
2022-11-23T03:55:45.587Z,2.87
2022-11-23T03:57:49.705Z,2.67
2022-11-23T03:59:52.005Z,2.20
2022-11-23T04:01:54.226Z,2.27
2022-11-23T04:04:01.670Z,2.30
2022-11-23T04:06:27.711Z,2.00
2022-11-23T04:08:34.481Z,2.10
2022-11-23T04:10:41.182Z,3.10
2022-11-23T04:12:53.758Z,2.50
2022-11-23T04:14:55.914Z,2.70
2022-11-23T04:16:58.458Z,3.20
2022-11-23T04:19:00.990Z,2.50
2022-11-23T04:21:03.543Z,1.90
2022-11-23T04:23:10.405Z,1.77
2022-11-23T04:25:15.795Z,1.57
2022-11-23T04:27:18.134Z,1.70
2022-11-23T04:29:20.711Z,2.00
2022-11-23T04:31:27.727Z,2.20
2022-11-23T04:33:41.047Z,1.87
2022-11-23T04:35:43.702Z,2.40
2022-11-23T04:37:46.220Z,2.33
2022-11-23T04:39:48.633Z,2.20
2022-11-23T04:41:53.955Z,2.03
2022-11-23T04:43:56.837Z,2.50
2022-11-23T04:46:02.107Z,2.63
2022-11-23T04:48:07.034Z,2.67
2022-11-23T04:50:10.640Z,2.33
2022-11-23T04:52:13.046Z,2.33
2022-11-23T04:54:20.896Z,4.60
2022-11-23T04:56:29.050Z,6.37
2022-11-23T04:58:34.530Z,5.97
2022-11-23T05:00:37.389Z,5.17
2022-11-23T05:02:40.804Z,3.23
2022-11-23T05:04:53.953Z,2.70
2022-11-23T05:06:59.903Z,2.60
2022-11-23T05:09:02.200Z,2.20
2022-11-23T05:11:15.873Z,2.30
2022-11-23T05:13:18.162Z,4.67
2022-11-23T05:15:22.224Z,4.57
2022-11-23T05:17:24.303Z,3.40
2022-11-23T05:19:28.910Z,3.50
2022-11-23T05:21:31.504Z,3.20
2022-11-23T05:23:34.626Z,4.00
2022-11-23T05:25:37.005Z,6.13
2022-11-23T05:27:40.250Z,8.50
2022-11-23T05:29:43.378Z,6.53
2022-11-23T05:31:46.393Z,5.80
2022-11-23T05:33:49.818Z,4.60
2022-11-23T05:35:57.944Z,6.37
2022-11-23T05:38:10.107Z,5.23
2022-11-23T05:40:13.508Z,4.07
2022-11-23T05:42:16.137Z,3.03
2022-11-23T05:44:18.186Z,2.97
2022-11-23T05:46:20.423Z,2.57
2022-11-23T05:48:22.644Z,2.43
2022-11-23T05:50:32.488Z,2.47
2022-11-23T05:52:53.651Z,2.87
2022-11-23T05:54:56.096Z,4.37
2022-11-23T05:56:58.981Z,6.50
2022-11-23T05:59:12.443Z,7.87
2022-11-23T06:01:17.723Z,8.30
2022-11-23T06:03:20.268Z,6.30
2022-11-23T06:05:22.436Z,5.90
2022-11-23T06:07:24.904Z,8.73
2022-11-23T06:09:48.068Z,11.33
2022-11-23T06:11:50.577Z,13.20
2022-11-23T06:13:55.165Z,14.60
2022-11-23T06:15:57.753Z,14.60
2022-11-23T06:18:06.970Z,12.80
2022-11-23T06:20:22.420Z,11.10
2022-11-23T06:22:34.469Z,10.77
2022-11-23T06:24:39.895Z,8.10
2022-11-23T06:27:05.572Z,7.50
2022-11-23T06:29:08.627Z,10.83
2022-11-23T06:31:11.528Z,12.80
2022-11-23T06:33:14.118Z,14.17
2022-11-23T06:35:22.503Z,13.50
2022-11-23T06:37:24.763Z,11.60
2022-11-23T06:39:28.904Z,11.73
2022-11-23T06:41:34.414Z,10.17
2022-11-23T06:43:38.163Z,8.83
2022-11-23T06:45:40.538Z,7.93
2022-11-23T06:47:46.533Z,7.17
2022-11-23T06:49:49.171Z,6.07
2022-11-23T06:52:00.251Z,4.40
2022-11-23T06:54:02.792Z,5.83
2022-11-23T06:56:05.585Z,11.23
2022-11-23T06:58:08.202Z,14.67
2022-11-23T07:00:11.475Z,13.40
2022-11-23T07:02:14.892Z,11.33
2022-11-23T07:04:17.555Z,12.23
2022-11-23T07:06:24.361Z,9.17
2022-11-23T07:08:29.520Z,6.47
2022-11-23T07:10:34.458Z,8.67
2022-11-23T07:12:36.679Z,10.50
2022-11-23T07:14:39.529Z,13.27
2022-11-23T07:16:42.584Z,14.37
2022-11-23T07:18:44.661Z,13.87
2022-11-23T07:20:46.712Z,12.73
2022-11-23T07:22:58.649Z,10.73
2022-11-23T07:25:00.789Z,14.13
2022-11-23T07:27:02.883Z,14.37
2022-11-23T07:29:04.836Z,12.80
2022-11-23T07:31:07.689Z,12.83
2022-11-23T07:33:11.871Z,12.50
2022-11-23T07:35:18.562Z,12.27
2022-11-23T07:37:21.017Z,10.73
2022-11-23T07:39:41.905Z,11.77
2022-11-23T07:41:51.431Z,13.27
2022-11-23T07:44:00.161Z,16.40
2022-11-23T07:46:02.436Z,20.70
2022-11-23T07:48:07.048Z,22.07
2022-11-23T07:50:11.405Z,14.97
2022-11-23T07:52:13.535Z,13.57
2022-11-23T07:54:20.693Z,10.07
2022-11-23T07:56:25.836Z,8.60
2022-11-23T07:58:28.166Z,9.63
2022-11-23T08:00:30.255Z,8.33
2022-11-23T08:02:32.421Z,8.67
2022-11-23T08:04:36.998Z,9.50
2022-11-23T08:06:39.143Z,8.97
2022-11-23T08:08:42.570Z,8.83
2022-11-23T08:10:48.559Z,8.23
2022-11-23T08:12:58.360Z,8.63
2022-11-23T08:15:00.580Z,9.23
2022-11-23T08:17:02.381Z,10.47
2022-11-23T08:19:04.858Z,9.37
2022-11-23T08:21:07.010Z,8.67
2022-11-23T08:23:09.212Z,8.17
2022-11-23T08:25:11.162Z,7.17
2022-11-23T08:27:15.336Z,5.00
2022-11-23T08:29:17.188Z,4.67
2022-11-23T08:31:19.407Z,9.30
2022-11-23T08:33:21.485Z,9.70
2022-11-23T08:35:24.477Z,6.20
2022-11-23T08:37:26.410Z,6.00
2022-11-23T08:39:28.537Z,6.63
2022-11-23T08:41:30.429Z,7.10
2022-11-23T08:43:32.995Z,9.87
2022-11-23T08:45:35.585Z,17.30
2022-11-23T08:47:37.545Z,11.27
2022-11-23T08:49:39.666Z,9.47
2022-11-23T08:51:45.626Z,9.90
2022-11-23T08:53:53.439Z,9.63
2022-11-23T08:55:55.381Z,11.27
2022-11-23T08:57:58.678Z,11.20
2022-11-23T09:00:00.874Z,10.32
2022-11-23T09:02:02.943Z,13.07
2022-11-23T09:04:05.758Z,12.90
2022-11-23T09:06:08.180Z,12.70
2022-11-23T09:08:10.449Z,12.13
2022-11-23T09:10:17.751Z,11.73
2022-11-23T09:12:20.357Z,12.83
2022-11-23T09:14:22.485Z,15.82
2022-11-23T09:16:25.950Z,16.60
2022-11-23T09:18:31.244Z,14.10
2022-11-23T09:20:33.215Z,14.93
2022-11-23T09:22:35.342Z,13.73
2022-11-23T09:24:37.648Z,14.80
2022-11-23T09:26:40.790Z,15.60
2022-11-23T09:28:44.899Z,17.67
2022-11-23T09:30:50.180Z,14.10
2022-11-23T09:32:52.149Z,11.65
2022-11-23T09:34:54.250Z,11.35
2022-11-23T09:36:59.127Z,17.75
2022-11-23T09:39:01.971Z,13.57
2022-11-23T09:45:16.726Z,12.27
2022-11-23T09:47:36.879Z,18.90
2022-11-23T09:50:09.458Z,13.73
2022-11-23T09:52:20.883Z,9.53
2022-11-23T09:54:28.257Z,7.70
2022-11-23T09:56:41.511Z,6.72
2022-11-23T09:58:43.360Z,9.55
2022-11-23T10:00:55.975Z,10.27
2022-11-23T10:02:57.775Z,10.23
2022-11-23T10:05:01.489Z,10.23
2022-11-23T10:07:28.355Z,10.63
2022-11-23T10:09:42.650Z,12.45
2022-11-23T10:12:01.990Z,14.38
2022-11-23T10:14:19.138Z,13.98
2022-11-23T10:16:49.579Z,10.70
2022-11-23T10:19:22.626Z,10.38
2022-11-23T10:21:39.898Z,10.52
2022-11-23T10:24:09.226Z,8.95
2022-11-23T10:26:16.956Z,9.23
2022-11-23T10:28:22.400Z,10.38
2022-11-23T10:30:24.556Z,9.75
2022-11-23T10:36:19.618Z,10.35
2022-11-23T10:38:27.520Z,11.45
2022-11-23T10:40:31.589Z,9.50
2022-11-23T10:42:43.722Z,8.23
2022-11-23T10:44:47.596Z,8.57
2022-11-23T10:46:49.468Z,6.65
2022-11-23T10:48:53.034Z,6.47
2022-11-23T10:51:16.714Z,6.63
2022-11-23T10:53:23.281Z,7.13
2022-11-23T10:55:47.194Z,6.53
2022-11-23T10:57:49.376Z,7.75
2022-11-23T11:00:20.009Z,7.25
2022-11-23T11:02:22.222Z,8.15
2022-11-23T11:04:25.877Z,8.45
2022-11-23T11:06:30.975Z,9.00
2022-11-23T11:08:48.738Z,9.25
2022-11-23T11:10:59.794Z,10.63
2022-11-23T11:13:02.248Z,12.60
2022-11-23T11:15:11.831Z,11.00
2022-11-23T11:17:37.757Z,10.55
2022-11-23T11:19:39.723Z,9.43
2022-11-23T11:21:45.668Z,9.18
2022-11-23T11:24:01.891Z,8.73
2022-11-23T11:26:10.684Z,8.30
2022-11-23T11:28:31.524Z,7.68
2022-11-23T11:30:46.079Z,7.93
2022-11-23T11:32:56.731Z,7.95
2022-11-23T11:35:10.846Z,9.40
2022-11-23T11:37:31.764Z,7.93
2022-11-23T11:39:42.785Z,8.40
2022-11-23T11:41:47.347Z,15.52
2022-11-23T11:43:56.405Z,12.38
2022-11-23T11:46:28.612Z,12.65
2022-11-23T11:48:40.278Z,12.00
2022-11-23T11:50:53.414Z,11.57
2022-11-23T11:53:09.196Z,13.02
2022-11-23T11:55:52.660Z,14.13
2022-11-23T11:58:27.206Z,12.52
2022-11-23T12:00:33.638Z,13.77
2022-11-23T12:03:20.507Z,19.55
2022-11-23T12:05:30.231Z,20.20
2022-11-23T12:07:36.551Z,24.42
2022-11-23T12:09:44.872Z,27.15
2022-11-23T12:11:46.826Z,39.35
2022-11-23T12:13:49.192Z,59.67
2022-11-23T12:16:16.424Z,45.05
2022-11-23T12:18:42.646Z,30.55
2022-11-23T12:21:10.415Z,27.17
2022-11-23T12:23:12.625Z,19.85
2022-11-23T12:25:28.715Z,17.63
2022-11-23T12:28:03.375Z,16.88
2022-11-23T12:30:28.117Z,17.38
2022-11-23T12:32:50.143Z,16.25
2022-11-23T12:35:20.616Z,15.90
2022-11-23T12:37:40.284Z,14.48
2022-11-23T12:40:14.859Z,25.40
2022-11-23T12:42:32.303Z,42.65
2022-11-23T12:45:04.228Z,52.28
2022-11-23T12:47:35.632Z,71.82
2022-11-23T12:49:47.992Z,55.33
2022-11-23T12:52:17.452Z,41.17
2022-11-23T12:54:37.816Z,33.60
2022-11-23T12:56:47.933Z,26.52
2022-11-23T12:58:52.974Z,23.98
2022-11-23T13:01:00.836Z,28.08
2022-11-23T13:03:33.864Z,25.58
2022-11-23T13:06:03.646Z,21.60
2022-11-23T13:08:37.905Z,20.60
2022-11-23T13:10:45.924Z,19.95
2022-11-23T13:13:25.409Z,18.70
2022-11-23T13:16:23.075Z,19.05
2022-11-23T13:19:05.008Z,19.77
2022-11-23T13:21:27.764Z,20.08
2022-11-23T13:23:36.805Z,21.05
2022-11-23T13:25:39.331Z,20.63
2022-11-23T13:27:44.581Z,17.90
2022-11-23T13:29:53.398Z,16.40
2022-11-23T13:32:35.079Z,15.55
2022-11-23T13:34:47.502Z,16.17
2022-11-23T13:37:16.066Z,17.77
2022-11-23T13:39:51.169Z,44.78
2022-11-23T13:42:02.938Z,24.25
2022-11-23T13:44:23.127Z,17.20
2022-11-23T13:46:29.698Z,13.50
2022-11-23T13:48:55.616Z,13.07
2022-11-23T13:51:02.234Z,9.98
2022-11-23T13:53:19.269Z,10.57
2022-11-23T13:55:42.970Z,12.88
2022-11-23T13:57:48.693Z,25.20
2022-11-23T13:59:54.164Z,22.60
2022-11-23T14:02:09.718Z,19.25
2022-11-23T14:04:24.673Z,12.65
2022-11-23T14:06:45.467Z,11.50
2022-11-23T14:08:52.001Z,13.55
2022-11-23T14:10:55.193Z,14.77
2022-11-23T14:13:13.320Z,13.15
2022-11-23T14:15:21.337Z,7.57
2022-11-23T14:17:42.101Z,6.35
2022-11-23T14:20:24.393Z,5.85
2022-11-23T14:23:22.619Z,5.32
2022-11-23T14:25:50.248Z,12.50
2022-11-23T14:27:58.124Z,12.68
2022-11-23T14:30:05.953Z,11.93
2022-11-23T14:32:33.375Z,9.10
2022-11-23T14:34:51.637Z,7.70
2022-11-23T14:37:19.337Z,14.00
2022-11-23T14:39:45.824Z,10.57
2022-11-23T14:41:55.567Z,10.10
2022-11-23T14:44:01.014Z,9.30
2022-11-23T14:46:07.548Z,10.43
2022-11-23T14:48:30.561Z,13.30
2022-11-23T14:50:36.947Z,46.25
2022-11-23T14:52:39.341Z,33.35
2022-11-23T14:54:48.689Z,37.80
2022-11-23T14:56:53.691Z,50.92
2022-11-23T14:59:02.937Z,29.95
2022-11-23T15:01:05.248Z,25.73
2022-11-23T15:03:48.794Z,24.35
2022-11-23T15:05:44.225Z,22.58
2022-11-23T15:07:57.152Z,22.67
2022-11-23T15:10:26.333Z,18.50
2022-11-23T15:12:46.005Z,14.57
2022-11-23T15:14:51.256Z,13.88
2022-11-23T15:16:53.203Z,16.23
2022-11-23T15:18:55.255Z,16.45
2022-11-23T15:21:03.752Z,16.00
2022-11-23T15:23:05.938Z,15.73
2022-11-23T15:25:13.675Z,16.23
2022-11-23T15:27:21.542Z,16.67
2022-11-23T15:29:35.747Z,16.80
2022-11-23T15:31:50.436Z,22.65
2022-11-23T15:34:12.158Z,40.75
2022-11-23T15:36:16.854Z,30.90
2022-11-23T15:38:23.651Z,26.60
2022-11-23T15:40:30.302Z,34.03
2022-11-23T15:42:33.028Z,36.65
2022-11-23T15:44:38.761Z,38.30
2022-11-23T15:46:41.895Z,37.17
2022-11-23T15:48:50.365Z,34.35
2022-11-23T15:50:58.667Z,40.97
2022-11-23T15:53:01.563Z,44.40
2022-11-23T15:55:09.815Z,43.47
2022-11-23T15:57:26.865Z,36.65
2022-11-23T15:59:35.512Z,29.50
2022-11-23T16:01:38.920Z,34.25
2022-11-23T16:03:42.760Z,31.17
2022-11-23T16:05:45.015Z,31.00
2022-11-23T16:07:53.643Z,30.25
2022-11-23T16:10:18.872Z,31.98
2022-11-23T16:12:27.276Z,28.67
2022-11-23T16:14:32.236Z,27.25
2022-11-23T16:16:34.602Z,25.02
2022-11-23T16:18:36.731Z,23.60
2022-11-23T16:20:45.083Z,24.23
2022-11-23T16:22:50.937Z,22.90
2022-11-23T16:25:08.585Z,22.55
2022-11-23T16:27:15.536Z,20.98
2022-11-23T16:29:26.515Z,19.65
2022-11-23T16:31:38.575Z,17.80
2022-11-23T16:33:40.704Z,18.17
2022-11-23T16:35:43.122Z,17.83
2022-11-23T16:37:45.883Z,18.02
2022-11-23T16:39:48.395Z,18.95
2022-11-23T16:41:52.356Z,20.92
2022-11-23T16:43:57.321Z,37.95
2022-11-23T16:46:01.942Z,35.10
2022-11-23T16:48:04.244Z,37.33
2022-11-23T16:50:06.814Z,32.80
2022-11-23T16:52:11.812Z,20.55
2022-11-23T16:54:16.225Z,21.88
2022-11-23T16:56:24.358Z,44.10
2022-11-23T16:58:30.595Z,40.22
2022-11-23T17:00:34.109Z,39.17
2022-11-23T17:02:36.428Z,48.67
2022-11-23T17:04:39.058Z,47.15
2022-11-23T17:06:42.959Z,45.35
2022-11-23T17:08:45.509Z,43.70
2022-11-23T17:10:48.593Z,43.83
2022-11-23T17:12:52.649Z,40.22
2022-11-23T17:14:54.797Z,38.13
2022-11-23T17:16:57.008Z,35.97
2022-11-23T17:18:59.410Z,34.10
2022-11-23T17:21:01.504Z,30.77
2022-11-23T17:23:03.456Z,29.30
2022-11-23T17:25:11.563Z,29.05
2022-11-23T17:27:21.105Z,29.30
2022-11-23T17:29:24.250Z,32.63
2022-11-23T17:31:26.540Z,34.45
2022-11-23T17:33:28.937Z,33.57
2022-11-23T17:35:36.763Z,30.63
2022-11-23T17:37:40.732Z,28.67
2022-11-23T17:39:43.303Z,30.45
2022-11-23T17:41:48.144Z,32.33
2022-11-23T17:43:50.995Z,31.88
2022-11-23T17:45:53.449Z,30.20
2022-11-23T17:47:59.451Z,29.63
2022-11-23T17:50:07.417Z,34.67
2022-11-23T17:52:11.740Z,37.60
2022-11-23T17:54:13.797Z,38.60
2022-11-23T17:56:19.549Z,37.13
2022-11-23T17:58:21.494Z,37.58
2022-11-23T18:00:29.777Z,40.13
2022-11-23T18:02:31.998Z,41.38
2022-11-23T18:04:34.137Z,47.72
2022-11-23T18:06:36.782Z,46.73
2022-11-23T18:08:39.207Z,45.95
2022-11-23T18:10:41.433Z,45.85
2022-11-23T18:12:44.841Z,56.78
2022-11-23T18:14:47.443Z,57.85
2022-11-23T18:16:50.552Z,47.75
2022-11-23T18:18:53.440Z,49.58
2022-11-23T18:20:55.622Z,47.53
2022-11-23T18:22:57.759Z,41.57
2022-11-23T18:24:59.904Z,46.03
2022-11-23T18:27:01.960Z,45.83
2022-11-23T18:29:04.545Z,44.63
2022-11-23T18:31:07.184Z,43.03
2022-11-23T18:33:09.649Z,41.38
2022-11-23T18:35:11.782Z,38.40
2022-11-23T18:37:13.863Z,37.55
2022-11-23T18:39:15.949Z,34.80
2022-11-23T18:41:17.946Z,33.25
2022-11-23T18:43:20.108Z,32.20
2022-11-23T18:45:22.061Z,30.70
2022-11-23T18:47:24.379Z,29.55
2022-11-23T18:49:26.408Z,29.85
2022-11-23T18:51:28.624Z,33.13
2022-11-23T18:53:32.380Z,35.67
2022-11-23T18:55:35.127Z,33.85
2022-11-23T18:57:37.885Z,31.08
2022-11-23T18:59:57.560Z,32.60
2022-11-23T19:02:00.586Z,28.63
2022-11-23T19:04:05.286Z,26.15
2022-11-23T19:06:08.428Z,25.52
2022-11-23T19:08:10.476Z,27.30
2022-11-23T19:10:12.578Z,25.48
2022-11-23T19:12:14.970Z,25.02
2022-11-23T19:14:17.148Z,24.92
2022-11-23T19:16:27.048Z,20.60
2022-11-23T19:18:29.496Z,19.88
2022-11-23T19:20:31.726Z,17.15
2022-11-23T19:22:35.161Z,19.58
2022-11-23T19:24:37.430Z,18.88
2022-11-23T19:26:40.023Z,19.50
2022-11-23T19:28:44.993Z,22.13
2022-11-23T19:30:49.479Z,25.90
2022-11-23T19:32:51.656Z,28.65
2022-11-23T19:34:55.518Z,30.25
2022-11-23T19:36:57.754Z,31.15
2022-11-23T19:39:03.492Z,30.38
2022-11-23T19:41:06.124Z,30.17
2022-11-23T19:43:08.163Z,32.00
2022-11-23T19:45:10.700Z,31.20
2022-11-23T19:47:16.546Z,31.40
2022-11-23T19:49:22.182Z,32.70
2022-11-23T19:51:24.861Z,33.13
2022-11-23T19:53:31.013Z,33.92
2022-11-23T19:55:33.060Z,33.92
2022-11-23T19:57:35.126Z,26.48
2022-11-23T19:59:37.129Z,24.98
2022-11-23T20:01:39.251Z,24.35
2022-11-23T20:03:43.802Z,20.77
2022-11-23T20:05:59.912Z,12.85
2022-11-23T20:08:02.136Z,11.32
2022-11-23T20:10:07.263Z,10.13
2022-11-23T20:12:09.712Z,8.70
2022-11-23T20:14:12.622Z,9.88
2022-11-23T20:16:17.381Z,20.77
2022-11-23T20:18:19.665Z,18.45
2022-11-23T20:20:21.700Z,16.75
2022-11-23T20:22:23.801Z,34.17
2022-11-23T20:24:25.704Z,33.10
2022-11-23T20:26:30.736Z,24.77
2022-11-23T20:28:32.841Z,17.95
2022-11-23T20:30:35.110Z,12.48
2022-11-23T20:32:37.091Z,8.88
2022-11-23T20:34:39.324Z,6.13
2022-11-23T20:36:41.178Z,4.78
2022-11-23T20:38:43.421Z,4.57
2022-11-23T20:40:45.265Z,3.97
2022-11-23T20:42:47.060Z,3.88
2022-11-23T20:44:49.008Z,2.78
2022-11-23T20:47:01.972Z,2.88
2022-11-23T20:49:04.588Z,3.22
2022-11-23T20:51:10.866Z,4.20
2022-11-23T20:53:12.865Z,3.40
2022-11-23T20:55:20.516Z,3.40
2022-11-23T20:57:22.786Z,3.63
2022-11-23T20:59:25.119Z,4.18
2022-11-23T21:01:28.957Z,5.63
2022-11-23T21:03:35.472Z,11.32
2022-11-23T21:05:37.871Z,11.30
2022-11-23T21:07:40.098Z,7.95
2022-11-23T21:09:42.280Z,5.97
2022-11-23T21:12:03.084Z,5.65
2022-11-23T21:14:13.957Z,4.85
2022-11-23T21:16:19.428Z,3.43
2022-11-23T21:18:21.346Z,4.23
2022-11-23T21:20:23.428Z,3.50
2022-11-23T21:22:25.445Z,4.13
2022-11-23T21:24:28.754Z,11.20
2022-11-23T21:26:32.865Z,7.40
2022-11-23T21:28:35.138Z,5.78
2022-11-23T21:30:37.344Z,4.40
2022-11-23T21:32:39.574Z,4.05
2022-11-23T21:34:41.612Z,3.40
2022-11-23T21:36:46.286Z,2.47
2022-11-23T21:38:48.984Z,2.60
2022-11-23T21:40:57.165Z,2.75
2022-11-23T21:42:59.299Z,2.95
2022-11-23T21:45:01.574Z,3.00
2022-11-23T21:47:04.121Z,3.25
2022-11-23T21:49:08.263Z,4.15
2022-11-23T21:51:14.191Z,4.25
2022-11-23T21:53:19.559Z,4.50
2022-11-23T21:55:21.549Z,3.80
2022-11-23T21:57:23.626Z,3.60
2022-11-23T21:59:25.782Z,3.55
2022-11-23T22:01:32.658Z,4.57
2022-11-23T22:03:43.179Z,5.55
2022-11-23T22:05:55.485Z,7.20
2022-11-23T22:08:27.571Z,8.85
2022-11-23T22:10:19.519Z,9.05
2022-11-23T22:12:21.796Z,9.35
2022-11-23T22:14:23.896Z,9.18
2022-11-23T22:16:30.541Z,9.82
2022-11-23T22:18:32.662Z,10.38
2022-11-23T22:20:34.808Z,10.32
2022-11-23T22:22:37.074Z,11.27
2022-11-23T22:24:39.550Z,11.07
2022-11-23T22:26:42.334Z,10.15
2022-11-23T22:28:47.231Z,9.95
2022-11-23T22:30:56.994Z,10.48
2022-11-23T22:32:58.998Z,11.10
2022-11-23T22:35:03.830Z,10.57
2022-11-23T22:37:10.737Z,11.38
2022-11-23T22:39:13.252Z,12.80
2022-11-23T22:41:17.008Z,12.52
2022-11-23T22:43:19.077Z,14.68
2022-11-23T22:45:21.824Z,53.47
2022-11-23T22:47:24.061Z,84.78
2022-11-23T22:49:26.082Z,82.63
2022-11-23T22:51:30.028Z,69.45
2022-11-23T22:53:32.741Z,56.72
2022-11-23T22:55:34.910Z,45.40
2022-11-23T22:57:39.684Z,53.85
2022-11-23T22:59:42.120Z,54.28
2022-11-23T23:01:44.410Z,50.55
2022-11-23T23:03:47.376Z,50.63
2022-11-23T23:05:57.337Z,47.70
2022-11-23T23:07:59.631Z,40.13
2022-11-23T23:10:02.000Z,31.77
2022-11-23T23:12:04.278Z,25.05
2022-11-23T23:14:06.580Z,22.55
2022-11-23T23:16:11.970Z,26.30
2022-11-23T23:18:16.404Z,36.40
2022-11-23T23:20:18.454Z,34.35
2022-11-23T23:22:20.516Z,25.08
2022-11-23T23:24:22.467Z,20.63
2022-11-23T23:26:26.303Z,23.00
2022-11-23T23:28:30.415Z,27.17
2022-11-23T23:30:32.635Z,25.85
2022-11-23T23:32:34.692Z,42.00
2022-11-23T23:34:36.704Z,62.80
2022-11-23T23:36:39.358Z,94.82
2022-11-23T23:38:42.144Z,100.93
2022-11-23T23:40:44.287Z,77.32
2022-11-23T23:42:46.818Z,57.38
2022-11-23T23:44:48.906Z,30.00
2022-11-23T23:46:51.361Z,23.80
2022-11-23T23:48:53.438Z,24.65
2022-11-23T23:50:55.901Z,33.53
2022-11-23T23:52:58.069Z,37.35
2022-11-23T23:55:00.203Z,43.30
2022-11-23T23:57:02.595Z,32.97
2022-11-23T23:59:04.720Z,27.15
